sensor_id;sensor_type;location;lat;lon;timestamp;temperature;humidity
69679;DHT22;56915;52.046;4.854;2023-04-03T00:00:33;3.40;74.90
69679;DHT22;56915;52.046;4.854;2023-04-03T00:03:01;3.40;75.60
69679;DHT22;56915;52.046;4.854;2023-04-03T00:05:28;3.40;75.50
69679;DHT22;56915;52.046;4.854;2023-04-03T00:07:55;3.40;75.20
69679;DHT22;56915;52.046;4.854;2023-04-03T00:10:21;3.30;75.60
69679;DHT22;56915;52.046;4.854;2023-04-03T00:12:48;3.30;75.80
69679;DHT22;56915;52.046;4.854;2023-04-03T00:15:15;3.30;75.40
69679;DHT22;56915;52.046;4.854;2023-04-03T00:17:42;3.20;75.70
69679;DHT22;56915;52.046;4.854;2023-04-03T00:20:09;3.20;75.80
69679;DHT22;56915;52.046;4.854;2023-04-03T00:22:36;3.20;76.00
69679;DHT22;56915;52.046;4.854;2023-04-03T00:25:03;3.20;76.10
69679;DHT22;56915;52.046;4.854;2023-04-03T00:27:30;3.20;76.30
69679;DHT22;56915;52.046;4.854;2023-04-03T00:29:57;3.20;75.90
69679;DHT22;56915;52.046;4.854;2023-04-03T00:32:24;3.20;76.20
69679;DHT22;56915;52.046;4.854;2023-04-03T00:34:51;3.10;76.20
69679;DHT22;56915;52.046;4.854;2023-04-03T00:37:18;3.10;76.00
69679;DHT22;56915;52.046;4.854;2023-04-03T00:39:44;3.00;76.20
69679;DHT22;56915;52.046;4.854;2023-04-03T00:42:11;3.00;76.00
69679;DHT22;56915;52.046;4.854;2023-04-03T00:47:08;2.90;76.80
69679;DHT22;56915;52.046;4.854;2023-04-03T00:49:38;2.80;77.30
69679;DHT22;56915;52.046;4.854;2023-04-03T00:52:06;2.70;77.70
69679;DHT22;56915;52.046;4.854;2023-04-03T00:54:36;2.70;78.00
69679;DHT22;56915;52.046;4.854;2023-04-03T00:57:04;2.70;78.70
69679;DHT22;56915;52.046;4.854;2023-04-03T00:59:35;2.70;79.30
69679;DHT22;56915;52.046;4.854;2023-04-03T01:02:03;2.70;80.10
69679;DHT22;56915;52.046;4.854;2023-04-03T01:04:33;2.70;78.80
69679;DHT22;56915;52.046;4.854;2023-04-03T01:07:12;2.60;78.90
69679;DHT22;56915;52.046;4.854;2023-04-03T01:09:42;2.60;79.30
69679;DHT22;56915;52.046;4.854;2023-04-03T01:12:29;2.50;79.60
69679;DHT22;56915;52.046;4.854;2023-04-03T01:14:59;2.50;79.70
69679;DHT22;56915;52.046;4.854;2023-04-03T01:23:25;2.30;80.10
69679;DHT22;56915;52.046;4.854;2023-04-03T01:25:55;2.20;80.60
69679;DHT22;56915;52.046;4.854;2023-04-03T01:28:32;2.10;81.30
69679;DHT22;56915;52.046;4.854;2023-04-03T01:33:54;2.00;82.10
69679;DHT22;56915;52.046;4.854;2023-04-03T01:36:26;2.00;82.80
69679;DHT22;56915;52.046;4.854;2023-04-03T01:38:54;1.90;82.70
69679;DHT22;56915;52.046;4.854;2023-04-03T01:41:21;1.90;83.30
69679;DHT22;56915;52.046;4.854;2023-04-03T01:43:49;1.80;84.00
69679;DHT22;56915;52.046;4.854;2023-04-03T01:46:16;1.80;84.40
69679;DHT22;56915;52.046;4.854;2023-04-03T01:48:43;1.70;84.80
69679;DHT22;56915;52.046;4.854;2023-04-03T01:51:10;1.70;85.40
69679;DHT22;56915;52.046;4.854;2023-04-03T01:53:37;1.70;86.10
69679;DHT22;56915;52.046;4.854;2023-04-03T01:56:04;1.70;86.10
69679;DHT22;56915;52.046;4.854;2023-04-03T01:58:31;1.60;87.10
69679;DHT22;56915;52.046;4.854;2023-04-03T02:00:58;1.60;86.80
69679;DHT22;56915;52.046;4.854;2023-04-03T02:03:25;1.60;87.10
69679;DHT22;56915;52.046;4.854;2023-04-03T02:05:52;1.50;87.00
69679;DHT22;56915;52.046;4.854;2023-04-03T02:08:19;1.50;87.30
69679;DHT22;56915;52.046;4.854;2023-04-03T02:10:48;1.40;88.00
69679;DHT22;56915;52.046;4.854;2023-04-03T02:13:16;1.40;89.30
69679;DHT22;56915;52.046;4.854;2023-04-03T02:15:43;1.30;89.00
69679;DHT22;56915;52.046;4.854;2023-04-03T02:18:12;1.30;90.00
69679;DHT22;56915;52.046;4.854;2023-04-03T02:20:39;1.30;90.20
69679;DHT22;56915;52.046;4.854;2023-04-03T02:23:06;1.20;90.30
69679;DHT22;56915;52.046;4.854;2023-04-03T02:25:33;1.20;90.20
69679;DHT22;56915;52.046;4.854;2023-04-03T02:28:04;1.20;90.40
69679;DHT22;56915;52.046;4.854;2023-04-03T02:30:31;1.20;90.80
69679;DHT22;56915;52.046;4.854;2023-04-03T02:32:58;1.20;90.70
69679;DHT22;56915;52.046;4.854;2023-04-03T02:35:24;1.10;90.90
69679;DHT22;56915;52.046;4.854;2023-04-03T02:37:51;1.10;91.10
69679;DHT22;56915;52.046;4.854;2023-04-03T02:40:18;1.10;91.20
69679;DHT22;56915;52.046;4.854;2023-04-03T02:42:45;1.00;91.20
69679;DHT22;56915;52.046;4.854;2023-04-03T02:45:12;1.00;91.40
69679;DHT22;56915;52.046;4.854;2023-04-03T02:47:39;1.00;91.50
69679;DHT22;56915;52.046;4.854;2023-04-03T02:50:06;0.90;91.70
69679;DHT22;56915;52.046;4.854;2023-04-03T02:52:33;0.90;91.80
69679;DHT22;56915;52.046;4.854;2023-04-03T02:55:00;0.80;92.10
69679;DHT22;56915;52.046;4.854;2023-04-03T02:57:27;0.80;92.20
69679;DHT22;56915;52.046;4.854;2023-04-03T02:59:54;0.70;92.40
69679;DHT22;56915;52.046;4.854;2023-04-03T03:02:21;0.70;92.60
69679;DHT22;56915;52.046;4.854;2023-04-03T03:04:48;0.60;92.70
69679;DHT22;56915;52.046;4.854;2023-04-03T03:07:14;0.60;92.90
69679;DHT22;56915;52.046;4.854;2023-04-03T03:09:41;0.60;93.10
69679;DHT22;56915;52.046;4.854;2023-04-03T03:12:08;0.60;93.30
69679;DHT22;56915;52.046;4.854;2023-04-03T03:14:35;0.60;93.40
69679;DHT22;56915;52.046;4.854;2023-04-03T03:17:02;0.60;93.50
69679;DHT22;56915;52.046;4.854;2023-04-03T03:19:28;0.50;93.70
69679;DHT22;56915;52.046;4.854;2023-04-03T03:21:55;0.50;93.80
69679;DHT22;56915;52.046;4.854;2023-04-03T03:24:23;0.50;94.00
69679;DHT22;56915;52.046;4.854;2023-04-03T03:26:50;0.50;94.30
69679;DHT22;56915;52.046;4.854;2023-04-03T03:29:16;0.50;94.40
69679;DHT22;56915;52.046;4.854;2023-04-03T03:31:43;0.50;94.40
69679;DHT22;56915;52.046;4.854;2023-04-03T03:34:10;0.50;94.50
69679;DHT22;56915;52.046;4.854;2023-04-03T03:36:37;0.50;94.90
69679;DHT22;56915;52.046;4.854;2023-04-03T03:39:04;0.50;95.20
69679;DHT22;56915;52.046;4.854;2023-04-03T03:41:31;0.50;95.20
69679;DHT22;56915;52.046;4.854;2023-04-03T03:43:58;0.50;95.00
69679;DHT22;56915;52.046;4.854;2023-04-03T03:46:24;0.50;95.10
69679;DHT22;56915;52.046;4.854;2023-04-03T03:48:51;0.50;95.30
69679;DHT22;56915;52.046;4.854;2023-04-03T03:51:18;0.50;95.20
69679;DHT22;56915;52.046;4.854;2023-04-03T03:53:45;0.40;95.10
69679;DHT22;56915;52.046;4.854;2023-04-03T03:56:12;0.40;95.20
69679;DHT22;56915;52.046;4.854;2023-04-03T03:58:38;0.40;95.70
69679;DHT22;56915;52.046;4.854;2023-04-03T04:01:06;0.40;95.90
69679;DHT22;56915;52.046;4.854;2023-04-03T04:03:33;0.30;95.70
69679;DHT22;56915;52.046;4.854;2023-04-03T04:06:00;0.30;95.80
69679;DHT22;56915;52.046;4.854;2023-04-03T04:08:27;0.30;95.80
69679;DHT22;56915;52.046;4.854;2023-04-03T04:10:54;0.30;95.80
69679;DHT22;56915;52.046;4.854;2023-04-03T04:13:21;0.20;95.90
69679;DHT22;56915;52.046;4.854;2023-04-03T04:15:48;0.20;96.20
69679;DHT22;56915;52.046;4.854;2023-04-03T04:18:15;0.20;96.20
69679;DHT22;56915;52.046;4.854;2023-04-03T04:20:42;0.20;96.20
69679;DHT22;56915;52.046;4.854;2023-04-03T04:23:11;0.10;96.20
69679;DHT22;56915;52.046;4.854;2023-04-03T04:25:38;0.10;96.40
69679;DHT22;56915;52.046;4.854;2023-04-03T04:28:05;0.10;96.60
69679;DHT22;56915;52.046;4.854;2023-04-03T04:30:32;0.10;96.80
69679;DHT22;56915;52.046;4.854;2023-04-03T04:32:59;0.10;97.10
69679;DHT22;56915;52.046;4.854;2023-04-03T04:35:26;0.10;97.20
69679;DHT22;56915;52.046;4.854;2023-04-03T04:37:53;0.10;97.50
69679;DHT22;56915;52.046;4.854;2023-04-03T04:40:20;0.00;97.30
69679;DHT22;56915;52.046;4.854;2023-04-03T04:42:47;0.10;97.70
69679;DHT22;56915;52.046;4.854;2023-04-03T04:45:14;0.10;97.80
69679;DHT22;56915;52.046;4.854;2023-04-03T04:47:41;0.10;97.90
69679;DHT22;56915;52.046;4.854;2023-04-03T04:50:09;0.10;97.90
69679;DHT22;56915;52.046;4.854;2023-04-03T04:52:36;0.10;98.10
69679;DHT22;56915;52.046;4.854;2023-04-03T04:55:03;0.20;98.60
69679;DHT22;56915;52.046;4.854;2023-04-03T04:57:30;0.20;98.40
69679;DHT22;56915;52.046;4.854;2023-04-03T04:59:57;0.20;98.60
69679;DHT22;56915;52.046;4.854;2023-04-03T05:02:24;0.20;98.30
69679;DHT22;56915;52.046;4.854;2023-04-03T05:04:51;0.20;98.30
69679;DHT22;56915;52.046;4.854;2023-04-03T05:07:19;0.10;98.40
69679;DHT22;56915;52.046;4.854;2023-04-03T05:09:45;0.10;98.60
69679;DHT22;56915;52.046;4.854;2023-04-03T05:12:12;0.10;98.80
69679;DHT22;56915;52.046;4.854;2023-04-03T05:14:39;0.20;99.40
69679;DHT22;56915;52.046;4.854;2023-04-03T05:17:06;0.20;99.40
69679;DHT22;56915;52.046;4.854;2023-04-03T05:19:33;0.30;99.50
69679;DHT22;56915;52.046;4.854;2023-04-03T05:21:59;0.30;99.40
69679;DHT22;56915;52.046;4.854;2023-04-03T05:24:26;0.40;99.40
69679;DHT22;56915;52.046;4.854;2023-04-03T05:26:53;0.40;99.60
69679;DHT22;56915;52.046;4.854;2023-04-03T05:29:21;0.40;99.70
69679;DHT22;56915;52.046;4.854;2023-04-03T05:31:51;0.50;99.90
69679;DHT22;56915;52.046;4.854;2023-04-03T05:34:18;0.50;99.90
69679;DHT22;56915;52.046;4.854;2023-04-03T05:36:45;0.60;99.90
69679;DHT22;56915;52.046;4.854;2023-04-03T05:39:12;0.70;99.90
69679;DHT22;56915;52.046;4.854;2023-04-03T05:41:39;0.70;99.90
69679;DHT22;56915;52.046;4.854;2023-04-03T05:44:06;0.80;99.90
69679;DHT22;56915;52.046;4.854;2023-04-03T05:46:33;0.90;99.90
69679;DHT22;56915;52.046;4.854;2023-04-03T05:48:59;1.00;99.90
69679;DHT22;56915;52.046;4.854;2023-04-03T05:51:32;1.10;99.90
69679;DHT22;56915;52.046;4.854;2023-04-03T05:54:06;1.20;99.90
69679;DHT22;56915;52.046;4.854;2023-04-03T05:56:35;1.30;99.90
69679;DHT22;56915;52.046;4.854;2023-04-03T05:59:02;1.30;99.80
69679;DHT22;56915;52.046;4.854;2023-04-03T06:01:29;1.40;99.70
69679;DHT22;56915;52.046;4.854;2023-04-03T06:03:56;1.40;99.80
69679;DHT22;56915;52.046;4.854;2023-04-03T06:06:25;1.50;99.50
69679;DHT22;56915;52.046;4.854;2023-04-03T06:08:52;1.60;99.50
69679;DHT22;56915;52.046;4.854;2023-04-03T06:11:19;1.70;99.50
69679;DHT22;56915;52.046;4.854;2023-04-03T06:13:48;1.70;99.70
69679;DHT22;56915;52.046;4.854;2023-04-03T06:16:15;1.80;99.30
69679;DHT22;56915;52.046;4.854;2023-04-03T06:18:43;1.90;99.20
69679;DHT22;56915;52.046;4.854;2023-04-03T06:21:11;2.00;98.90
69679;DHT22;56915;52.046;4.854;2023-04-03T06:23:38;2.10;98.80
69679;DHT22;56915;52.046;4.854;2023-04-03T06:26:05;2.20;98.60
69679;DHT22;56915;52.046;4.854;2023-04-03T06:28:32;2.20;98.70
69679;DHT22;56915;52.046;4.854;2023-04-03T06:30:59;2.30;98.40
69679;DHT22;56915;52.046;4.854;2023-04-03T06:33:26;2.40;98.20
69679;DHT22;56915;52.046;4.854;2023-04-03T06:35:57;2.50;98.00
69679;DHT22;56915;52.046;4.854;2023-04-03T06:38:24;2.60;97.80
69679;DHT22;56915;52.046;4.854;2023-04-03T06:40:52;2.70;97.60
69679;DHT22;56915;52.046;4.854;2023-04-03T06:43:19;2.70;97.70
69679;DHT22;56915;52.046;4.854;2023-04-03T06:45:48;2.80;97.20
69679;DHT22;56915;52.046;4.854;2023-04-03T06:48:14;2.90;97.30
69679;DHT22;56915;52.046;4.854;2023-04-03T06:50:42;3.00;96.80
69679;DHT22;56915;52.046;4.854;2023-04-03T06:53:09;3.10;96.50
69679;DHT22;56915;52.046;4.854;2023-04-03T06:55:36;3.20;96.30
69679;DHT22;56915;52.046;4.854;2023-04-03T06:58:03;3.20;96.10
69679;DHT22;56915;52.046;4.854;2023-04-03T07:00:31;3.30;95.90
69679;DHT22;56915;52.046;4.854;2023-04-03T07:02:58;3.40;95.60
69679;DHT22;56915;52.046;4.854;2023-04-03T07:05:25;3.50;95.40
69679;DHT22;56915;52.046;4.854;2023-04-03T07:07:52;3.60;94.80
69679;DHT22;56915;52.046;4.854;2023-04-03T07:10:19;3.60;94.40
69679;DHT22;56915;52.046;4.854;2023-04-03T07:12:47;3.70;94.10
69679;DHT22;56915;52.046;4.854;2023-04-03T07:15:14;3.80;93.60
69679;DHT22;56915;52.046;4.854;2023-04-03T07:17:41;3.90;93.50
69679;DHT22;56915;52.046;4.854;2023-04-03T07:20:08;3.90;93.00
69679;DHT22;56915;52.046;4.854;2023-04-03T07:22:35;4.00;92.60
69679;DHT22;56915;52.046;4.854;2023-04-03T07:25:03;4.10;92.30
69679;DHT22;56915;52.046;4.854;2023-04-03T07:27:30;4.20;91.50
69679;DHT22;56915;52.046;4.854;2023-04-03T07:29:57;4.30;91.10
69679;DHT22;56915;52.046;4.854;2023-04-03T07:32:23;4.40;90.70
69679;DHT22;56915;52.046;4.854;2023-04-03T07:34:50;4.40;90.00
69679;DHT22;56915;52.046;4.854;2023-04-03T07:37:17;4.50;89.20
69679;DHT22;56915;52.046;4.854;2023-04-03T07:39:45;4.60;88.60
69679;DHT22;56915;52.046;4.854;2023-04-03T07:42:19;4.70;86.80
69679;DHT22;56915;52.046;4.854;2023-04-03T07:44:46;4.80;86.20
69679;DHT22;56915;52.046;4.854;2023-04-03T07:47:14;4.80;84.70
69679;DHT22;56915;52.046;4.854;2023-04-03T07:49:41;4.90;83.80
69679;DHT22;56915;52.046;4.854;2023-04-03T07:52:08;5.00;82.90
69679;DHT22;56915;52.046;4.854;2023-04-03T07:54:35;5.10;81.90
69679;DHT22;56915;52.046;4.854;2023-04-03T07:57:03;5.20;79.50
69679;DHT22;56915;52.046;4.854;2023-04-03T07:59:30;5.30;79.70
69679;DHT22;56915;52.046;4.854;2023-04-03T08:01:56;5.30;77.90
69679;DHT22;56915;52.046;4.854;2023-04-03T08:04:23;5.40;76.20
69679;DHT22;56915;52.046;4.854;2023-04-03T08:06:52;5.50;75.70
69679;DHT22;56915;52.046;4.854;2023-04-03T08:09:19;5.50;75.30
69679;DHT22;56915;52.046;4.854;2023-04-03T08:11:46;5.70;73.40
69679;DHT22;56915;52.046;4.854;2023-04-03T08:14:13;5.70;72.40
69679;DHT22;56915;52.046;4.854;2023-04-03T08:16:44;5.80;72.00
69679;DHT22;56915;52.046;4.854;2023-04-03T08:19:12;5.90;71.60
69679;DHT22;56915;52.046;4.854;2023-04-03T08:21:50;6.00;70.00
69679;DHT22;56915;52.046;4.854;2023-04-03T08:24:17;6.10;68.60
69679;DHT22;56915;52.046;4.854;2023-04-03T08:26:44;6.20;67.20
69679;DHT22;56915;52.046;4.854;2023-04-03T08:29:11;6.20;65.10
69679;DHT22;56915;52.046;4.854;2023-04-03T08:31:38;6.30;65.00
69679;DHT22;56915;52.046;4.854;2023-04-03T08:34:05;6.40;64.90
69679;DHT22;56915;52.046;4.854;2023-04-03T08:36:33;6.50;63.40
69679;DHT22;56915;52.046;4.854;2023-04-03T08:39:00;6.50;63.20
69679;DHT22;56915;52.046;4.854;2023-04-03T08:41:34;6.60;61.70
69679;DHT22;56915;52.046;4.854;2023-04-03T08:52:10;7.00;58.30
69679;DHT22;56915;52.046;4.854;2023-04-03T08:54:50;7.10;57.30
69679;DHT22;56915;52.046;4.854;2023-04-03T08:57:45;7.10;56.60
69679;DHT22;56915;52.046;4.854;2023-04-03T09:02:45;7.30;52.30
69679;DHT22;56915;52.046;4.854;2023-04-03T09:10:55;7.50;51.40
69679;DHT22;56915;52.046;4.854;2023-04-03T09:16:28;7.80;49.60
69679;DHT22;56915;52.046;4.854;2023-04-03T09:21:38;7.80;46.80
69679;DHT22;56915;52.046;4.854;2023-04-03T09:24:12;7.90;46.40
69679;DHT22;56915;52.046;4.854;2023-04-03T09:29:17;7.90;44.20
69679;DHT22;56915;52.046;4.854;2023-04-03T09:31:46;8.00;43.80
69679;DHT22;56915;52.046;4.854;2023-04-03T09:34:25;8.00;43.70
69679;DHT22;56915;52.046;4.854;2023-04-03T09:36:55;8.00;43.30
69679;DHT22;56915;52.046;4.854;2023-04-03T09:39:25;8.10;43.20
69679;DHT22;56915;52.046;4.854;2023-04-03T09:42:01;8.10;42.00
69679;DHT22;56915;52.046;4.854;2023-04-03T09:44:32;8.20;42.60
69679;DHT22;56915;52.046;4.854;2023-04-03T09:47:00;8.20;43.00
69679;DHT22;56915;52.046;4.854;2023-04-03T09:49:43;8.30;42.30
69679;DHT22;56915;52.046;4.854;2023-04-03T09:52:42;8.40;41.50
69679;DHT22;56915;52.046;4.854;2023-04-03T09:55:19;8.40;41.00
69679;DHT22;56915;52.046;4.854;2023-04-03T09:57:48;8.50;41.00
69679;DHT22;56915;52.046;4.854;2023-04-03T10:00:30;8.50;40.20
69679;DHT22;56915;52.046;4.854;2023-04-03T10:02:59;8.60;40.90
69679;DHT22;56915;52.046;4.854;2023-04-03T10:05:37;8.60;40.10
69679;DHT22;56915;52.046;4.854;2023-04-03T10:08:21;8.70;39.80
69679;DHT22;56915;52.046;4.854;2023-04-03T10:13:49;8.80;39.40
69679;DHT22;56915;52.046;4.854;2023-04-03T10:16:20;8.90;39.00
69679;DHT22;56915;52.046;4.854;2023-04-03T10:18:52;8.90;38.30
69679;DHT22;56915;52.046;4.854;2023-04-03T10:21:46;8.90;38.40
69679;DHT22;56915;52.046;4.854;2023-04-03T10:33:35;9.30;38.70
69679;DHT22;56915;52.046;4.854;2023-04-03T10:42:02;9.30;35.90
69679;DHT22;56915;52.046;4.854;2023-04-03T10:58:32;9.50;34.40
69679;DHT22;56915;52.046;4.854;2023-04-03T11:01:08;9.50;34.50
69679;DHT22;56915;52.046;4.854;2023-04-03T11:03:42;9.60;34.00
69679;DHT22;56915;52.046;4.854;2023-04-03T11:06:15;9.60;34.40
69679;DHT22;56915;52.046;4.854;2023-04-03T11:09:15;9.60;33.00
69679;DHT22;56915;52.046;4.854;2023-04-03T11:11:45;9.60;32.30
69679;DHT22;56915;52.046;4.854;2023-04-03T11:14:34;9.60;32.40
69679;DHT22;56915;52.046;4.854;2023-04-03T11:19:43;9.80;32.10
69679;DHT22;56915;52.046;4.854;2023-04-03T11:22:26;9.80;31.90
69679;DHT22;56915;52.046;4.854;2023-04-03T11:28:04;9.80;30.70
69679;DHT22;56915;52.046;4.854;2023-04-03T11:33:49;9.90;30.00
69679;DHT22;56915;52.046;4.854;2023-04-03T11:38:56;9.90;29.70
69679;DHT22;56915;52.046;4.854;2023-04-03T11:41:29;10.00;29.80
69679;DHT22;56915;52.046;4.854;2023-04-03T11:44:36;10.00;30.00
69679;DHT22;56915;52.046;4.854;2023-04-03T11:47:09;10.10;29.80
69679;DHT22;56915;52.046;4.854;2023-04-03T11:49:59;10.10;29.50
69679;DHT22;56915;52.046;4.854;2023-04-03T11:52:54;10.20;29.40
69679;DHT22;56915;52.046;4.854;2023-04-03T12:06:42;10.30;29.40
69679;DHT22;56915;52.046;4.854;2023-04-03T12:08:47;10.40;29.90
69679;DHT22;56915;52.046;4.854;2023-04-03T12:14:16;10.60;30.80
69679;DHT22;56915;52.046;4.854;2023-04-03T12:16:47;10.60;30.10
69679;DHT22;56915;52.046;4.854;2023-04-03T12:24:34;10.70;31.40
69679;DHT22;56915;52.046;4.854;2023-04-03T12:29:38;10.80;32.00
69679;DHT22;56915;52.046;4.854;2023-04-03T12:40:43;10.80;30.00
69679;DHT22;56915;52.046;4.854;2023-04-03T12:48:18;10.80;30.80
69679;DHT22;56915;52.046;4.854;2023-04-03T12:50:49;10.90;31.10
69679;DHT22;56915;52.046;4.854;2023-04-03T12:53:22;10.90;31.30
69679;DHT22;56915;52.046;4.854;2023-04-03T12:55:57;10.90;30.40
69679;DHT22;56915;52.046;4.854;2023-04-03T12:58:26;10.90;31.20
69679;DHT22;56915;52.046;4.854;2023-04-03T13:01:11;10.90;31.30
69679;DHT22;56915;52.046;4.854;2023-04-03T13:03:42;11.00;31.20
69679;DHT22;56915;52.046;4.854;2023-04-03T13:06:28;11.00;32.60
69679;DHT22;56915;52.046;4.854;2023-04-03T13:08:59;11.10;31.70
69679;DHT22;56915;52.046;4.854;2023-04-03T13:11:35;11.20;32.00
69679;DHT22;56915;52.046;4.854;2023-04-03T13:14:12;11.20;32.20
69679;DHT22;56915;52.046;4.854;2023-04-03T13:16:40;11.30;31.80
69679;DHT22;56915;52.046;4.854;2023-04-03T13:19:16;11.30;31.50
69679;DHT22;56915;52.046;4.854;2023-04-03T13:21:44;11.30;31.60
69679;DHT22;56915;52.046;4.854;2023-04-03T13:24:11;11.30;31.80
69679;DHT22;56915;52.046;4.854;2023-04-03T13:26:42;11.40;30.10
69679;DHT22;56915;52.046;4.854;2023-04-03T13:29:28;11.30;29.70
69679;DHT22;56915;52.046;4.854;2023-04-03T13:31:59;11.30;30.00
69679;DHT22;56915;52.046;4.854;2023-04-03T13:34:29;11.30;30.70
69679;DHT22;56915;52.046;4.854;2023-04-03T13:37:00;11.40;31.20
69679;DHT22;56915;52.046;4.854;2023-04-03T13:39:30;11.50;30.90
69679;DHT22;56915;52.046;4.854;2023-04-03T13:42:00;11.50;30.50
69679;DHT22;56915;52.046;4.854;2023-04-03T13:44:36;11.50;30.20
69679;DHT22;56915;52.046;4.854;2023-04-03T13:49:59;11.50;29.80
69679;DHT22;56915;52.046;4.854;2023-04-03T13:55:01;11.50;30.00
69679;DHT22;56915;52.046;4.854;2023-04-03T13:57:31;11.60;29.70
69679;DHT22;56915;52.046;4.854;2023-04-03T13:59:58;11.60;30.00
69679;DHT22;56915;52.046;4.854;2023-04-03T14:02:33;11.70;30.20
69679;DHT22;56915;52.046;4.854;2023-04-03T14:05:02;11.70;30.30
69679;DHT22;56915;52.046;4.854;2023-04-03T14:07:30;11.80;30.80
69679;DHT22;56915;52.046;4.854;2023-04-03T14:09:58;11.90;30.40
69679;DHT22;56915;52.046;4.854;2023-04-03T14:12:32;11.90;29.90
69679;DHT22;56915;52.046;4.854;2023-04-03T14:15:01;11.90;30.00
69679;DHT22;56915;52.046;4.854;2023-04-03T14:17:29;12.00;30.00
69679;DHT22;56915;52.046;4.854;2023-04-03T14:19:59;12.00;29.90
69679;DHT22;56915;52.046;4.854;2023-04-03T14:22:32;12.10;30.00
69679;DHT22;56915;52.046;4.854;2023-04-03T14:24:59;12.10;29.80
69679;DHT22;56915;52.046;4.854;2023-04-03T14:27:34;12.10;29.60
69679;DHT22;56915;52.046;4.854;2023-04-03T14:30:01;12.20;29.60
69679;DHT22;56915;52.046;4.854;2023-04-03T14:32:30;12.20;29.30
69679;DHT22;56915;52.046;4.854;2023-04-03T14:34:57;12.10;28.90
69679;DHT22;56915;52.046;4.854;2023-04-03T14:37:28;12.00;28.40
69679;DHT22;56915;52.046;4.854;2023-04-03T14:39:57;11.90;28.90
69679;DHT22;56915;52.046;4.854;2023-04-03T14:42:33;11.90;29.10
69679;DHT22;56915;52.046;4.854;2023-04-03T14:45:05;12.00;29.30
69679;DHT22;56915;52.046;4.854;2023-04-03T14:47:33;12.10;29.70
69679;DHT22;56915;52.046;4.854;2023-04-03T14:50:04;12.30;29.70
69679;DHT22;56915;52.046;4.854;2023-04-03T14:52:34;12.30;29.80
69679;DHT22;56915;52.046;4.854;2023-04-03T14:55:03;12.50;30.00
69679;DHT22;56915;52.046;4.854;2023-04-03T14:57:31;12.60;29.80
69679;DHT22;56915;52.046;4.854;2023-04-03T14:59:58;12.60;29.50
69679;DHT22;56915;52.046;4.854;2023-04-03T15:04:54;12.50;28.90
69679;DHT22;56915;52.046;4.854;2023-04-03T15:07:43;12.50;28.70
69679;DHT22;56915;52.046;4.854;2023-04-03T15:10:22;12.60;29.10
69679;DHT22;56915;52.046;4.854;2023-04-03T15:12:51;12.70;29.50
69679;DHT22;56915;52.046;4.854;2023-04-03T15:15:20;12.80;29.30
69679;DHT22;56915;52.046;4.854;2023-04-03T15:17:51;12.90;28.90
69679;DHT22;56915;52.046;4.854;2023-04-03T15:20:23;13.00;27.80
69679;DHT22;56915;52.046;4.854;2023-04-03T15:22:51;13.00;28.10
69679;DHT22;56915;52.046;4.854;2023-04-03T15:25:18;13.80;28.00
69679;DHT22;56915;52.046;4.854;2023-04-03T15:27:45;15.90;27.00
69679;DHT22;56915;52.046;4.854;2023-04-03T15:30:15;18.00;25.30
69679;DHT22;56915;52.046;4.854;2023-04-03T15:32:42;19.60;22.40
69679;DHT22;56915;52.046;4.854;2023-04-03T15:35:10;20.80;23.70
69679;DHT22;56915;52.046;4.854;2023-04-03T15:37:37;22.30;23.80
69679;DHT22;56915;52.046;4.854;2023-04-03T15:40:04;23.50;22.40
69679;DHT22;56915;52.046;4.854;2023-04-03T15:42:32;24.10;21.00
69679;DHT22;56915;52.046;4.854;2023-04-03T15:44:59;24.70;20.90
69679;DHT22;56915;52.046;4.854;2023-04-03T15:47:26;25.40;20.80
69679;DHT22;56915;52.046;4.854;2023-04-03T15:49:54;26.10;20.40
69679;DHT22;56915;52.046;4.854;2023-04-03T15:52:22;26.80;20.00
69679;DHT22;56915;52.046;4.854;2023-04-03T15:54:49;27.40;20.20
69679;DHT22;56915;52.046;4.854;2023-04-03T15:57:16;27.80;19.40
69679;DHT22;56915;52.046;4.854;2023-04-03T15:59:43;28.30;19.60
69679;DHT22;56915;52.046;4.854;2023-04-03T16:02:11;28.90;18.90
69679;DHT22;56915;52.046;4.854;2023-04-03T16:04:40;29.30;18.80
69679;DHT22;56915;52.046;4.854;2023-04-03T16:07:07;29.60;18.20
69679;DHT22;56915;52.046;4.854;2023-04-03T16:09:34;29.90;18.10
69679;DHT22;56915;52.046;4.854;2023-04-03T16:12:02;30.30;18.60
69679;DHT22;56915;52.046;4.854;2023-04-03T16:14:29;30.80;18.40
69679;DHT22;56915;52.046;4.854;2023-04-03T16:16:58;31.00;17.90
69679;DHT22;56915;52.046;4.854;2023-04-03T16:19:26;31.30;17.90
69679;DHT22;56915;52.046;4.854;2023-04-03T16:21:54;31.60;17.70
69679;DHT22;56915;52.046;4.854;2023-04-03T16:24:21;31.90;17.80
69679;DHT22;56915;52.046;4.854;2023-04-03T16:26:48;32.40;18.00
69679;DHT22;56915;52.046;4.854;2023-04-03T16:29:15;33.40;18.10
69679;DHT22;56915;52.046;4.854;2023-04-03T16:31:42;34.40;17.00
69679;DHT22;56915;52.046;4.854;2023-04-03T16:34:09;35.00;16.40
69679;DHT22;56915;52.046;4.854;2023-04-03T16:36:36;35.50;17.10
69679;DHT22;56915;52.046;4.854;2023-04-03T16:39:04;35.40;14.50
69679;DHT22;56915;52.046;4.854;2023-04-03T16:41:31;34.20;14.90
69679;DHT22;56915;52.046;4.854;2023-04-03T16:43:58;33.50;14.80
69679;DHT22;56915;52.046;4.854;2023-04-03T16:46:25;33.00;15.10
69679;DHT22;56915;52.046;4.854;2023-04-03T16:48:54;32.00;15.40
69679;DHT22;56915;52.046;4.854;2023-04-03T16:51:21;30.10;14.70
69679;DHT22;56915;52.046;4.854;2023-04-03T16:53:48;27.90;14.70
69679;DHT22;56915;52.046;4.854;2023-04-03T16:56:15;26.30;15.50
69679;DHT22;56915;52.046;4.854;2023-04-03T16:58:42;25.70;15.80
69679;DHT22;56915;52.046;4.854;2023-04-03T17:01:15;25.20;15.80
69679;DHT22;56915;52.046;4.854;2023-04-03T17:03:42;24.40;16.30
69679;DHT22;56915;52.046;4.854;2023-04-03T17:06:42;23.40;16.80
69679;DHT22;56915;52.046;4.854;2023-04-03T17:09:09;23.00;17.30
69679;DHT22;56915;52.046;4.854;2023-04-03T17:11:36;22.20;17.40
69679;DHT22;56915;52.046;4.854;2023-04-03T17:14:06;21.50;17.70
69679;DHT22;56915;52.046;4.854;2023-04-03T17:16:35;21.20;18.20
69679;DHT22;56915;52.046;4.854;2023-04-03T17:19:03;20.90;18.60
69679;DHT22;56915;52.046;4.854;2023-04-03T17:21:32;20.40;19.00
69679;DHT22;56915;52.046;4.854;2023-04-03T17:24:03;20.10;19.40
69679;DHT22;56915;52.046;4.854;2023-04-03T17:26:30;20.00;19.70
69679;DHT22;56915;52.046;4.854;2023-04-03T17:28:57;19.50;19.70
69679;DHT22;56915;52.046;4.854;2023-04-03T17:31:27;19.10;20.00
69679;DHT22;56915;52.046;4.854;2023-04-03T17:33:53;18.80;20.10
69679;DHT22;56915;52.046;4.854;2023-04-03T17:36:21;18.30;20.60
69679;DHT22;56915;52.046;4.854;2023-04-03T17:38:50;18.00;20.80
69679;DHT22;56915;52.046;4.854;2023-04-03T17:41:17;17.80;20.90
69679;DHT22;56915;52.046;4.854;2023-04-03T17:43:44;17.70;21.20
69679;DHT22;56915;52.046;4.854;2023-04-03T17:46:10;17.50;21.40
69679;DHT22;56915;52.046;4.854;2023-04-03T17:48:39;16.70;21.70
69679;DHT22;56915;52.046;4.854;2023-04-03T17:51:09;16.00;22.50
69679;DHT22;56915;52.046;4.854;2023-04-03T17:53:37;15.60;23.10
69679;DHT22;56915;52.046;4.854;2023-04-03T17:56:09;15.70;23.60